sensor_id;sensor_type;location;lat;lon;timestamp;P1;durP1;ratioP1;P2;durP2;ratioP2
77571;SDS011;67214;47.454;18.966;2023-04-03T00:01:07;8.63;;;6.58;;
77571;SDS011;67214;47.454;18.966;2023-04-03T00:03:36;7.40;;;5.62;;
77571;SDS011;67214;47.454;18.966;2023-04-03T00:06:04;8.10;;;5.83;;
77571;SDS011;67214;47.454;18.966;2023-04-03T00:08:32;9.90;;;5.90;;
77571;SDS011;67214;47.454;18.966;2023-04-03T00:11:00;9.43;;;6.15;;
77571;SDS011;67214;47.454;18.966;2023-04-03T00:13:28;7.42;;;5.83;;
77571;SDS011;67214;47.454;18.966;2023-04-03T00:15:56;7.30;;;5.92;;
77571;SDS011;67214;47.454;18.966;2023-04-03T00:18:23;7.97;;;5.80;;
77571;SDS011;67214;47.454;18.966;2023-04-03T00:20:51;8.68;;;6.20;;
77571;SDS011;67214;47.454;18.966;2023-04-03T00:23:18;8.15;;;6.45;;
77571;SDS011;67214;47.454;18.966;2023-04-03T00:25:46;10.72;;;6.42;;
77571;SDS011;67214;47.454;18.966;2023-04-03T00:28:13;7.85;;;5.50;;
77571;SDS011;67214;47.454;18.966;2023-04-03T00:30:41;8.25;;;5.92;;
77571;SDS011;67214;47.454;18.966;2023-04-03T00:33:10;8.28;;;5.22;;
77571;SDS011;67214;47.454;18.966;2023-04-03T00:35:40;6.60;;;5.40;;
77571;SDS011;67214;47.454;18.966;2023-04-03T00:38:08;7.80;;;5.25;;
77571;SDS011;67214;47.454;18.966;2023-04-03T00:40:39;7.37;;;5.62;;
77571;SDS011;67214;47.454;18.966;2023-04-03T00:43:14;7.22;;;5.50;;
77571;SDS011;67214;47.454;18.966;2023-04-03T00:45:43;6.92;;;5.03;;
77571;SDS011;67214;47.454;18.966;2023-04-03T00:48:24;5.65;;;4.65;;
77571;SDS011;67214;47.454;18.966;2023-04-03T00:50:49;8.75;;;5.00;;
77571;SDS011;67214;47.454;18.966;2023-04-03T00:53:20;7.15;;;5.20;;
77571;SDS011;67214;47.454;18.966;2023-04-03T00:55:49;7.53;;;5.28;;
77571;SDS011;67214;47.454;18.966;2023-04-03T00:58:18;7.33;;;5.20;;
77571;SDS011;67214;47.454;18.966;2023-04-03T01:00:50;7.70;;;5.37;;
77571;SDS011;67214;47.454;18.966;2023-04-03T01:03:20;7.20;;;5.40;;
77571;SDS011;67214;47.454;18.966;2023-04-03T01:05:48;7.80;;;5.45;;
77571;SDS011;67214;47.454;18.966;2023-04-03T01:08:16;6.90;;;5.15;;
77571;SDS011;67214;47.454;18.966;2023-04-03T01:10:44;7.45;;;5.30;;
77571;SDS011;67214;47.454;18.966;2023-04-03T01:13:25;6.12;;;4.65;;
77571;SDS011;67214;47.454;18.966;2023-04-03T01:16:00;7.08;;;4.67;;
77571;SDS011;67214;47.454;18.966;2023-04-03T01:21:09;8.70;;;5.55;;
77571;SDS011;67214;47.454;18.966;2023-04-03T01:23:51;6.58;;;4.95;;
77571;SDS011;67214;47.454;18.966;2023-04-03T01:26:21;6.87;;;5.12;;
77571;SDS011;67214;47.454;18.966;2023-04-03T01:28:48;7.40;;;5.22;;
77571;SDS011;67214;47.454;18.966;2023-04-03T01:31:21;6.35;;;4.75;;
77571;SDS011;67214;47.454;18.966;2023-04-03T01:34:06;6.00;;;4.37;;
77571;SDS011;67214;47.454;18.966;2023-04-03T01:36:33;5.30;;;4.20;;
77571;SDS011;67214;47.454;18.966;2023-04-03T01:39:01;5.17;;;4.15;;
77571;SDS011;67214;47.454;18.966;2023-04-03T01:41:29;6.25;;;4.45;;
77571;SDS011;67214;47.454;18.966;2023-04-03T01:43:56;6.20;;;4.85;;
77571;SDS011;67214;47.454;18.966;2023-04-03T01:46:23;5.15;;;4.20;;
77571;SDS011;67214;47.454;18.966;2023-04-03T01:48:51;6.00;;;4.42;;
77571;SDS011;67214;47.454;18.966;2023-04-03T01:51:19;5.50;;;3.92;;
77571;SDS011;67214;47.454;18.966;2023-04-03T01:53:46;5.60;;;3.80;;
77571;SDS011;67214;47.454;18.966;2023-04-03T01:56:13;5.55;;;3.90;;
77571;SDS011;67214;47.454;18.966;2023-04-03T01:58:41;6.03;;;4.40;;
77571;SDS011;67214;47.454;18.966;2023-04-03T02:01:08;7.42;;;4.10;;
77571;SDS011;67214;47.454;18.966;2023-04-03T02:03:36;5.10;;;4.03;;
77571;SDS011;67214;47.454;18.966;2023-04-03T02:06:03;5.22;;;4.05;;
77571;SDS011;67214;47.454;18.966;2023-04-03T02:08:31;7.30;;;4.22;;
77571;SDS011;67214;47.454;18.966;2023-04-03T02:10:58;5.37;;;4.20;;
77571;SDS011;67214;47.454;18.966;2023-04-03T02:13:26;5.22;;;3.50;;
77571;SDS011;67214;47.454;18.966;2023-04-03T02:15:53;7.55;;;4.00;;
77571;SDS011;67214;47.454;18.966;2023-04-03T02:18:21;5.92;;;3.17;;
77571;SDS011;67214;47.454;18.966;2023-04-03T02:20:49;5.22;;;3.67;;
77571;SDS011;67214;47.454;18.966;2023-04-03T02:23:16;5.55;;;3.85;;
77571;SDS011;67214;47.454;18.966;2023-04-03T02:25:43;4.08;;;3.25;;
77571;SDS011;67214;47.454;18.966;2023-04-03T02:28:11;4.47;;;3.45;;
77571;SDS011;67214;47.454;18.966;2023-04-03T02:30:38;5.55;;;3.77;;
77571;SDS011;67214;47.454;18.966;2023-04-03T02:33:06;5.87;;;4.17;;
77571;SDS011;67214;47.454;18.966;2023-04-03T02:35:33;4.85;;;3.55;;
77571;SDS011;67214;47.454;18.966;2023-04-03T02:38:02;5.15;;;3.92;;
77571;SDS011;67214;47.454;18.966;2023-04-03T02:40:29;5.85;;;3.98;;
77571;SDS011;67214;47.454;18.966;2023-04-03T02:42:57;4.90;;;3.55;;
77571;SDS011;67214;47.454;18.966;2023-04-03T02:45:24;5.20;;;3.87;;
77571;SDS011;67214;47.454;18.966;2023-04-03T02:47:52;5.40;;;3.62;;
77571;SDS011;67214;47.454;18.966;2023-04-03T02:50:19;5.80;;;3.75;;
77571;SDS011;67214;47.454;18.966;2023-04-03T02:52:46;4.67;;;3.35;;
77571;SDS011;67214;47.454;18.966;2023-04-03T02:55:14;4.65;;;3.58;;
77571;SDS011;67214;47.454;18.966;2023-04-03T02:57:42;5.20;;;4.15;;
77571;SDS011;67214;47.454;18.966;2023-04-03T03:00:09;6.25;;;3.80;;
77571;SDS011;67214;47.454;18.966;2023-04-03T03:02:37;4.47;;;3.50;;
77571;SDS011;67214;47.454;18.966;2023-04-03T03:05:05;5.17;;;3.92;;
77571;SDS011;67214;47.454;18.966;2023-04-03T03:07:33;5.22;;;3.35;;
77571;SDS011;67214;47.454;18.966;2023-04-03T03:10:00;5.17;;;3.55;;
77571;SDS011;67214;47.454;18.966;2023-04-03T03:12:28;4.78;;;3.42;;
77571;SDS011;67214;47.454;18.966;2023-04-03T03:14:55;6.08;;;3.85;;
77571;SDS011;67214;47.454;18.966;2023-04-03T03:17:23;5.53;;;3.77;;
77571;SDS011;67214;47.454;18.966;2023-04-03T03:19:50;5.90;;;3.98;;
77571;SDS011;67214;47.454;18.966;2023-04-03T03:22:18;5.20;;;3.80;;
77571;SDS011;67214;47.454;18.966;2023-04-03T03:24:46;5.10;;;4.05;;
77571;SDS011;67214;47.454;18.966;2023-04-03T03:27:13;5.70;;;3.83;;
77571;SDS011;67214;47.454;18.966;2023-04-03T03:29:41;6.05;;;4.05;;
77571;SDS011;67214;47.454;18.966;2023-04-03T03:32:09;5.90;;;4.65;;
77571;SDS011;67214;47.454;18.966;2023-04-03T03:34:36;6.12;;;4.30;;
77571;SDS011;67214;47.454;18.966;2023-04-03T03:37:04;6.80;;;4.53;;
77571;SDS011;67214;47.454;18.966;2023-04-03T03:39:31;6.25;;;4.75;;
77571;SDS011;67214;47.454;18.966;2023-04-03T03:41:59;6.20;;;4.83;;
77571;SDS011;67214;47.454;18.966;2023-04-03T03:44:26;6.53;;;4.45;;
77571;SDS011;67214;47.454;18.966;2023-04-03T03:46:54;5.78;;;4.15;;
77571;SDS011;67214;47.454;18.966;2023-04-03T03:49:22;5.83;;;4.50;;
77571;SDS011;67214;47.454;18.966;2023-04-03T03:51:50;6.17;;;4.70;;
77571;SDS011;67214;47.454;18.966;2023-04-03T03:54:17;7.05;;;4.95;;
77571;SDS011;67214;47.454;18.966;2023-04-03T03:56:45;7.35;;;4.42;;
77571;SDS011;67214;47.454;18.966;2023-04-03T03:59:12;4.53;;;3.58;;
77571;SDS011;67214;47.454;18.966;2023-04-03T04:01:40;5.90;;;4.40;;
77571;SDS011;67214;47.454;18.966;2023-04-03T04:04:07;6.70;;;4.75;;
77571;SDS011;67214;47.454;18.966;2023-04-03T04:06:35;5.17;;;4.00;;
77571;SDS011;67214;47.454;18.966;2023-04-03T04:09:03;6.12;;;4.33;;
77571;SDS011;67214;47.454;18.966;2023-04-03T04:11:30;6.15;;;4.60;;
77571;SDS011;67214;47.454;18.966;2023-04-03T04:13:58;5.58;;;4.08;;
77571;SDS011;67214;47.454;18.966;2023-04-03T04:16:26;7.20;;;4.42;;
77571;SDS011;67214;47.454;18.966;2023-04-03T04:18:53;5.50;;;4.20;;
77571;SDS011;67214;47.454;18.966;2023-04-03T04:21:21;6.87;;;3.98;;
77571;SDS011;67214;47.454;18.966;2023-04-03T04:23:49;5.97;;;4.60;;
77571;SDS011;67214;47.454;18.966;2023-04-03T04:26:16;6.42;;;4.35;;
77571;SDS011;67214;47.454;18.966;2023-04-03T04:28:43;5.87;;;4.12;;
77571;SDS011;67214;47.454;18.966;2023-04-03T04:31:11;5.75;;;4.00;;
77571;SDS011;67214;47.454;18.966;2023-04-03T04:33:38;11.12;;;4.45;;
77571;SDS011;67214;47.454;18.966;2023-04-03T04:36:06;5.42;;;4.10;;
77571;SDS011;67214;47.454;18.966;2023-04-03T04:38:34;7.03;;;5.00;;
77571;SDS011;67214;47.454;18.966;2023-04-03T04:41:01;6.03;;;4.22;;
77571;SDS011;67214;47.454;18.966;2023-04-03T04:43:28;6.08;;;4.22;;
77571;SDS011;67214;47.454;18.966;2023-04-03T04:46:05;6.45;;;4.28;;
77571;SDS011;67214;47.454;18.966;2023-04-03T04:48:37;5.72;;;4.10;;
77571;SDS011;67214;47.454;18.966;2023-04-03T04:51:05;6.35;;;4.55;;
77571;SDS011;67214;47.454;18.966;2023-04-03T04:53:33;6.72;;;4.50;;
77571;SDS011;67214;47.454;18.966;2023-04-03T04:56:00;6.90;;;4.50;;
77571;SDS011;67214;47.454;18.966;2023-04-03T04:58:28;4.97;;;3.87;;
77571;SDS011;67214;47.454;18.966;2023-04-03T05:01:02;6.53;;;4.65;;
77571;SDS011;67214;47.454;18.966;2023-04-03T05:03:31;7.33;;;4.67;;
77571;SDS011;67214;47.454;18.966;2023-04-03T05:05:59;6.30;;;4.10;;
77571;SDS011;67214;47.454;18.966;2023-04-03T05:08:27;5.58;;;4.20;;
77571;SDS011;67214;47.454;18.966;2023-04-03T05:10:55;5.10;;;3.98;;
77571;SDS011;67214;47.454;18.966;2023-04-03T05:13:22;6.53;;;4.30;;
77571;SDS011;67214;47.454;18.966;2023-04-03T05:15:50;6.75;;;4.35;;
77571;SDS011;67214;47.454;18.966;2023-04-03T05:18:17;5.45;;;3.98;;
77571;SDS011;67214;47.454;18.966;2023-04-03T05:20:45;6.70;;;4.55;;
77571;SDS011;67214;47.454;18.966;2023-04-03T05:23:13;6.20;;;3.95;;
77571;SDS011;67214;47.454;18.966;2023-04-03T05:25:41;5.90;;;4.22;;
77571;SDS011;67214;47.454;18.966;2023-04-03T05:28:11;5.80;;;4.40;;
77571;SDS011;67214;47.454;18.966;2023-04-03T05:30:39;6.22;;;4.58;;
77571;SDS011;67214;47.454;18.966;2023-04-03T05:33:07;5.47;;;4.03;;
77571;SDS011;67214;47.454;18.966;2023-04-03T05:35:35;6.42;;;3.90;;
77571;SDS011;67214;47.454;18.966;2023-04-03T05:38:07;5.12;;;3.65;;
77571;SDS011;67214;47.454;18.966;2023-04-03T05:40:34;4.42;;;3.25;;
77571;SDS011;67214;47.454;18.966;2023-04-03T05:43:02;4.75;;;3.65;;
77571;SDS011;67214;47.454;18.966;2023-04-03T05:45:29;4.80;;;3.70;;
77571;SDS011;67214;47.454;18.966;2023-04-03T05:47:57;5.40;;;3.70;;
77571;SDS011;67214;47.454;18.966;2023-04-03T05:50:24;6.80;;;4.33;;
77571;SDS011;67214;47.454;18.966;2023-04-03T05:52:52;5.22;;;3.60;;
77571;SDS011;67214;47.454;18.966;2023-04-03T05:55:24;6.92;;;3.72;;
77571;SDS011;67214;47.454;18.966;2023-04-03T05:57:51;5.53;;;3.95;;
77571;SDS011;67214;47.454;18.966;2023-04-03T06:00:19;6.22;;;3.67;;
77571;SDS011;67214;47.454;18.966;2023-04-03T06:02:46;6.97;;;4.05;;
77571;SDS011;67214;47.454;18.966;2023-04-03T06:05:14;6.40;;;3.72;;
77571;SDS011;67214;47.454;18.966;2023-04-03T06:07:41;5.90;;;3.60;;
77571;SDS011;67214;47.454;18.966;2023-04-03T06:10:11;5.28;;;3.98;;
77571;SDS011;67214;47.454;18.966;2023-04-03T06:12:39;5.33;;;3.90;;
77571;SDS011;67214;47.454;18.966;2023-04-03T06:15:07;4.58;;;3.35;;
77571;SDS011;67214;47.454;18.966;2023-04-03T06:17:36;5.95;;;3.60;;
77571;SDS011;67214;47.454;18.966;2023-04-03T06:20:03;4.37;;;3.17;;
77571;SDS011;67214;47.454;18.966;2023-04-03T06:22:31;5.62;;;3.22;;
77571;SDS011;67214;47.454;18.966;2023-04-03T06:24:59;4.95;;;3.70;;
77571;SDS011;67214;47.454;18.966;2023-04-03T06:27:27;5.22;;;3.30;;
77571;SDS011;67214;47.454;18.966;2023-04-03T06:29:54;4.45;;;3.42;;
77571;SDS011;67214;47.454;18.966;2023-04-03T06:32:21;7.80;;;3.47;;
77571;SDS011;67214;47.454;18.966;2023-04-03T06:34:49;5.08;;;3.47;;
77571;SDS011;67214;47.454;18.966;2023-04-03T06:37:17;5.17;;;2.90;;
77571;SDS011;67214;47.454;18.966;2023-04-03T06:39:46;4.70;;;3.35;;
77571;SDS011;67214;47.454;18.966;2023-04-03T06:42:14;4.95;;;3.52;;
77571;SDS011;67214;47.454;18.966;2023-04-03T06:44:41;4.67;;;3.17;;
77571;SDS011;67214;47.454;18.966;2023-04-03T06:47:10;5.33;;;3.17;;
77571;SDS011;67214;47.454;18.966;2023-04-03T06:49:41;4.92;;;2.90;;
77571;SDS011;67214;47.454;18.966;2023-04-03T06:52:09;6.00;;;3.25;;
77571;SDS011;67214;47.454;18.966;2023-04-03T06:54:39;4.75;;;3.30;;
77571;SDS011;67214;47.454;18.966;2023-04-03T06:57:07;4.35;;;3.40;;
77571;SDS011;67214;47.454;18.966;2023-04-03T06:59:35;5.37;;;2.77;;
77571;SDS011;67214;47.454;18.966;2023-04-03T07:02:03;3.52;;;2.40;;
77571;SDS011;67214;47.454;18.966;2023-04-03T07:04:30;3.90;;;2.87;;
77571;SDS011;67214;47.454;18.966;2023-04-03T07:06:58;3.98;;;2.55;;
77571;SDS011;67214;47.454;18.966;2023-04-03T07:09:25;4.35;;;3.20;;
77571;SDS011;67214;47.454;18.966;2023-04-03T07:11:53;5.17;;;3.87;;
77571;SDS011;67214;47.454;18.966;2023-04-03T07:14:20;4.53;;;2.83;;
77571;SDS011;67214;47.454;18.966;2023-04-03T07:16:48;4.80;;;3.00;;
77571;SDS011;67214;47.454;18.966;2023-04-03T07:19:15;4.00;;;2.70;;
77571;SDS011;67214;47.454;18.966;2023-04-03T07:21:44;4.08;;;2.83;;
77571;SDS011;67214;47.454;18.966;2023-04-03T07:24:11;4.25;;;2.85;;
77571;SDS011;67214;47.454;18.966;2023-04-03T07:26:38;3.60;;;2.45;;
77571;SDS011;67214;47.454;18.966;2023-04-03T07:29:06;3.67;;;2.70;;
77571;SDS011;67214;47.454;18.966;2023-04-03T07:31:34;5.03;;;2.70;;
77571;SDS011;67214;47.454;18.966;2023-04-03T07:34:02;2.55;;;1.98;;
77571;SDS011;67214;47.454;18.966;2023-04-03T07:36:30;3.47;;;2.25;;
77571;SDS011;67214;47.454;18.966;2023-04-03T07:38:58;3.40;;;2.30;;
77571;SDS011;67214;47.454;18.966;2023-04-03T07:41:26;3.70;;;2.02;;
77571;SDS011;67214;47.454;18.966;2023-04-03T07:43:54;3.37;;;2.00;;
77571;SDS011;67214;47.454;18.966;2023-04-03T07:46:22;3.33;;;2.12;;
77571;SDS011;67214;47.454;18.966;2023-04-03T07:48:50;3.52;;;2.00;;
77571;SDS011;67214;47.454;18.966;2023-04-03T07:51:17;6.37;;;2.70;;
77571;SDS011;67214;47.454;18.966;2023-04-03T07:53:45;7.45;;;2.70;;
77571;SDS011;67214;47.454;18.966;2023-04-03T07:56:13;6.28;;;2.62;;
77571;SDS011;67214;47.454;18.966;2023-04-03T07:58:41;3.55;;;2.52;;
77571;SDS011;67214;47.454;18.966;2023-04-03T08:01:09;2.83;;;1.95;;
77571;SDS011;67214;47.454;18.966;2023-04-03T08:03:37;5.75;;;2.20;;
77571;SDS011;67214;47.454;18.966;2023-04-03T08:06:06;3.10;;;2.02;;
77571;SDS011;67214;47.454;18.966;2023-04-03T08:08:34;3.75;;;2.37;;
77571;SDS011;67214;47.454;18.966;2023-04-03T08:11:02;3.55;;;2.00;;
77571;SDS011;67214;47.454;18.966;2023-04-03T08:13:31;6.05;;;3.17;;
77571;SDS011;67214;47.454;18.966;2023-04-03T08:16:06;5.25;;;2.70;;
77571;SDS011;67214;47.454;18.966;2023-04-03T08:18:36;3.12;;;2.17;;
77571;SDS011;67214;47.454;18.966;2023-04-03T08:21:10;5.15;;;2.30;;
77571;SDS011;67214;47.454;18.966;2023-04-03T08:23:39;2.30;;;1.60;;
77571;SDS011;67214;47.454;18.966;2023-04-03T08:26:11;4.33;;;1.98;;
77571;SDS011;67214;47.454;18.966;2023-04-03T08:28:40;2.35;;;1.75;;
77571;SDS011;67214;47.454;18.966;2023-04-03T08:31:09;2.70;;;2.00;;
77571;SDS011;67214;47.454;18.966;2023-04-03T08:33:39;3.08;;;1.80;;
77571;SDS011;67214;47.454;18.966;2023-04-03T08:36:08;3.65;;;1.92;;
77571;SDS011;67214;47.454;18.966;2023-04-03T08:38:37;3.33;;;2.22;;
77571;SDS011;67214;47.454;18.966;2023-04-03T08:46:36;3.77;;;1.47;;
77571;SDS011;67214;47.454;18.966;2023-04-03T08:51:59;3.95;;;1.90;;
77571;SDS011;67214;47.454;18.966;2023-04-03T08:54:37;3.45;;;2.10;;
77571;SDS011;67214;47.454;18.966;2023-04-03T08:57:06;4.45;;;1.98;;
77571;SDS011;67214;47.454;18.966;2023-04-03T08:59:34;3.85;;;2.12;;
77571;SDS011;67214;47.454;18.966;2023-04-03T09:02:12;7.30;;;2.17;;
77571;SDS011;67214;47.454;18.966;2023-04-03T09:04:41;3.55;;;2.15;;
77571;SDS011;67214;47.454;18.966;2023-04-03T09:07:12;2.40;;;1.65;;
77571;SDS011;67214;47.454;18.966;2023-04-03T09:09:41;2.40;;;1.65;;
77571;SDS011;67214;47.454;18.966;2023-04-03T09:12:25;3.05;;;1.87;;
77571;SDS011;67214;47.454;18.966;2023-04-03T09:15:01;5.42;;;2.15;;
77571;SDS011;67214;47.454;18.966;2023-04-03T09:24:00;2.90;;;2.40;;
77571;SDS011;67214;47.454;18.966;2023-04-03T09:25:51;3.20;;;1.98;;
77571;SDS011;67214;47.454;18.966;2023-04-03T09:28:21;5.22;;;1.98;;
77571;SDS011;67214;47.454;18.966;2023-04-03T09:30:48;2.22;;;1.87;;
77571;SDS011;67214;47.454;18.966;2023-04-03T09:33:16;2.87;;;1.77;;
77571;SDS011;67214;47.454;18.966;2023-04-03T09:35:45;3.62;;;2.20;;
77571;SDS011;67214;47.454;18.966;2023-04-03T09:38:15;2.75;;;1.80;;
77571;SDS011;67214;47.454;18.966;2023-04-03T09:40:46;4.22;;;2.00;;
77571;SDS011;67214;47.454;18.966;2023-04-03T09:45:56;2.40;;;1.80;;
77571;SDS011;67214;47.454;18.966;2023-04-03T09:48:52;4.70;;;2.27;;
77571;SDS011;67214;47.454;18.966;2023-04-03T09:51:26;3.58;;;2.02;;
77571;SDS011;67214;47.454;18.966;2023-04-03T09:53:54;3.77;;;1.70;;
77571;SDS011;67214;47.454;18.966;2023-04-03T09:56:26;5.10;;;1.80;;
77571;SDS011;67214;47.454;18.966;2023-04-03T10:01:34;5.85;;;1.80;;
77571;SDS011;67214;47.454;18.966;2023-04-03T10:04:10;2.35;;;1.70;;
77571;SDS011;67214;47.454;18.966;2023-04-03T10:06:43;2.60;;;1.60;;
77571;SDS011;67214;47.454;18.966;2023-04-03T10:11:59;4.25;;;1.90;;
77571;SDS011;67214;47.454;18.966;2023-04-03T10:14:33;2.25;;;1.42;;
77571;SDS011;67214;47.454;18.966;2023-04-03T10:17:03;2.20;;;1.40;;
77571;SDS011;67214;47.454;18.966;2023-04-03T10:22:14;1.90;;;1.27;;
77571;SDS011;67214;47.454;18.966;2023-04-03T10:27:30;3.37;;;1.40;;
77571;SDS011;67214;47.454;18.966;2023-04-03T10:29:58;1.55;;;1.15;;
77571;SDS011;67214;47.454;18.966;2023-04-03T10:35:55;2.60;;;1.87;;
77571;SDS011;67214;47.454;18.966;2023-04-03T10:38:26;2.67;;;1.40;;
77571;SDS011;67214;47.454;18.966;2023-04-03T10:40:57;3.22;;;2.27;;
77571;SDS011;67214;47.454;18.966;2023-04-03T10:43:43;4.97;;;1.92;;
77571;SDS011;67214;47.454;18.966;2023-04-03T10:46:23;3.83;;;1.70;;
77571;SDS011;67214;47.454;18.966;2023-04-03T10:52:06;2.05;;;1.20;;
77571;SDS011;67214;47.454;18.966;2023-04-03T10:54:42;2.40;;;1.37;;
77571;SDS011;67214;47.454;18.966;2023-04-03T10:57:11;1.70;;;1.20;;
77571;SDS011;67214;47.454;18.966;2023-04-03T10:59:46;3.83;;;1.40;;
77571;SDS011;67214;47.454;18.966;2023-04-03T11:02:25;1.65;;;1.10;;
77571;SDS011;67214;47.454;18.966;2023-04-03T11:04:59;2.83;;;1.60;;
77571;SDS011;67214;47.454;18.966;2023-04-03T11:07:45;3.00;;;1.32;;
77571;SDS011;67214;47.454;18.966;2023-04-03T11:10:18;1.85;;;1.30;;
77571;SDS011;67214;47.454;18.966;2023-04-03T11:13:14;2.05;;;1.30;;
77571;SDS011;67214;47.454;18.966;2023-04-03T11:15:48;2.15;;;1.22;;
77571;SDS011;67214;47.454;18.966;2023-04-03T11:18:31;2.02;;;1.37;;
77571;SDS011;67214;47.454;18.966;2023-04-03T11:21:02;3.92;;;2.45;;
77571;SDS011;67214;47.454;18.966;2023-04-03T11:23:34;3.33;;;1.90;;
77571;SDS011;67214;47.454;18.966;2023-04-03T11:26:17;4.53;;;1.70;;
77571;SDS011;67214;47.454;18.966;2023-04-03T11:28:46;2.47;;;1.30;;
77571;SDS011;67214;47.454;18.966;2023-04-03T11:37:00;3.30;;;1.07;;
77571;SDS011;67214;47.454;18.966;2023-04-03T11:39:31;3.65;;;1.37;;
77571;SDS011;67214;47.454;18.966;2023-04-03T11:42:16;1.57;;;1.10;;
77571;SDS011;67214;47.454;18.966;2023-04-03T11:44:49;1.72;;;1.20;;
77571;SDS011;67214;47.454;18.966;2023-04-03T11:55:44;2.58;;;1.35;;
77571;SDS011;67214;47.454;18.966;2023-04-03T11:58:16;3.08;;;1.25;;
77571;SDS011;67214;47.454;18.966;2023-04-03T12:16:26;2.33;;;1.30;;
77571;SDS011;67214;47.454;18.966;2023-04-03T12:24:32;3.37;;;1.15;;
77571;SDS011;67214;47.454;18.966;2023-04-03T12:27:04;2.42;;;1.25;;
77571;SDS011;67214;47.454;18.966;2023-04-03T12:30:01;4.70;;;1.42;;
77571;SDS011;67214;47.454;18.966;2023-04-03T12:35:24;2.22;;;1.37;;
77571;SDS011;67214;47.454;18.966;2023-04-03T12:40:50;2.02;;;1.20;;
77571;SDS011;67214;47.454;18.966;2023-04-03T12:43:43;2.12;;;1.42;;
77571;SDS011;67214;47.454;18.966;2023-04-03T12:46:16;2.72;;;1.07;;
77571;SDS011;67214;47.454;18.966;2023-04-03T12:54:09;4.45;;;1.55;;
77571;SDS011;67214;47.454;18.966;2023-04-03T12:56:40;1.50;;;0.93;;
77571;SDS011;67214;47.454;18.966;2023-04-03T12:59:19;1.62;;;1.17;;
77571;SDS011;67214;47.454;18.966;2023-04-03T13:02:02;1.90;;;1.27;;
77571;SDS011;67214;47.454;18.966;2023-04-03T13:04:30;4.53;;;1.20;;
77571;SDS011;67214;47.454;18.966;2023-04-03T13:06:58;2.40;;;1.00;;
77571;SDS011;67214;47.454;18.966;2023-04-03T13:09:28;1.67;;;1.10;;
77571;SDS011;67214;47.454;18.966;2023-04-03T13:11:59;2.20;;;1.22;;
77571;SDS011;67214;47.454;18.966;2023-04-03T13:14:31;1.57;;;1.07;;
77571;SDS011;67214;47.454;18.966;2023-04-03T13:17:00;1.20;;;0.88;;
77571;SDS011;67214;47.454;18.966;2023-04-03T13:19:38;2.42;;;1.00;;
77571;SDS011;67214;47.454;18.966;2023-04-03T13:24:59;2.42;;;1.27;;
77571;SDS011;67214;47.454;18.966;2023-04-03T13:27:30;2.35;;;1.10;;
77571;SDS011;67214;47.454;18.966;2023-04-03T13:29:59;2.40;;;1.12;;
77571;SDS011;67214;47.454;18.966;2023-04-03T13:32:30;1.67;;;1.12;;
77571;SDS011;67214;47.454;18.966;2023-04-03T13:34:59;1.40;;;0.88;;
77571;SDS011;67214;47.454;18.966;2023-04-03T13:37:28;2.00;;;1.17;;
77571;SDS011;67214;47.454;18.966;2023-04-03T13:42:35;1.52;;;1.20;;
77571;SDS011;67214;47.454;18.966;2023-04-03T13:47:46;2.15;;;1.07;;
77571;SDS011;67214;47.454;18.966;2023-04-03T13:50:16;1.72;;;1.25;;
77571;SDS011;67214;47.454;18.966;2023-04-03T13:55:23;1.60;;;1.00;;
77571;SDS011;67214;47.454;18.966;2023-04-03T13:58:02;2.02;;;1.25;;
77571;SDS011;67214;47.454;18.966;2023-04-03T14:00:37;2.20;;;1.25;;
77571;SDS011;67214;47.454;18.966;2023-04-03T14:03:12;1.25;;;0.80;;
77571;SDS011;67214;47.454;18.966;2023-04-03T14:05:42;3.58;;;1.40;;
77571;SDS011;67214;47.454;18.966;2023-04-03T14:08:11;3.60;;;1.30;;
77571;SDS011;67214;47.454;18.966;2023-04-03T14:10:38;1.65;;;1.25;;
77571;SDS011;67214;47.454;18.966;2023-04-03T14:13:06;1.65;;;1.27;;
77571;SDS011;67214;47.454;18.966;2023-04-03T14:15:34;2.47;;;1.27;;
77571;SDS011;67214;47.454;18.966;2023-04-03T14:18:02;4.58;;;1.25;;
77571;SDS011;67214;47.454;18.966;2023-04-03T14:20:30;2.77;;;1.27;;
77571;SDS011;67214;47.454;18.966;2023-04-03T14:22:59;5.40;;;1.07;;
77571;SDS011;67214;47.454;18.966;2023-04-03T14:25:28;3.35;;;1.40;;
77571;SDS011;67214;47.454;18.966;2023-04-03T14:27:56;4.35;;;1.60;;
77571;SDS011;67214;47.454;18.966;2023-04-03T14:30:24;1.80;;;1.20;;
77571;SDS011;67214;47.454;18.966;2023-04-03T14:32:54;7.10;;;1.47;;
77571;SDS011;67214;47.454;18.966;2023-04-03T14:35:23;6.08;;;1.47;;
77571;SDS011;67214;47.454;18.966;2023-04-03T14:37:51;2.15;;;1.27;;
77571;SDS011;67214;47.454;18.966;2023-04-03T14:40:22;1.82;;;1.00;;
77571;SDS011;67214;47.454;18.966;2023-04-03T14:42:51;2.15;;;1.30;;
77571;SDS011;67214;47.454;18.966;2023-04-03T14:45:20;2.17;;;1.42;;
77571;SDS011;67214;47.454;18.966;2023-04-03T14:47:49;2.77;;;1.77;;
77571;SDS011;67214;47.454;18.966;2023-04-03T14:50:26;6.58;;;2.95;;
77571;SDS011;67214;47.454;18.966;2023-04-03T14:52:52;5.28;;;2.90;;
77571;SDS011;67214;47.454;18.966;2023-04-03T14:55:23;6.35;;;3.50;;
77571;SDS011;67214;47.454;18.966;2023-04-03T14:57:51;3.87;;;2.10;;
77571;SDS011;67214;47.454;18.966;2023-04-03T15:00:20;3.83;;;2.25;;
77571;SDS011;67214;47.454;18.966;2023-04-03T15:02:48;3.30;;;1.85;;
77571;SDS011;67214;47.454;18.966;2023-04-03T15:05:16;2.17;;;1.47;;
77571;SDS011;67214;47.454;18.966;2023-04-03T15:07:53;3.17;;;1.90;;
77571;SDS011;67214;47.454;18.966;2023-04-03T15:10:24;3.47;;;2.20;;
77571;SDS011;67214;47.454;18.966;2023-04-03T15:12:53;2.20;;;1.60;;
77571;SDS011;67214;47.454;18.966;2023-04-03T15:15:21;2.52;;;1.77;;
77571;SDS011;67214;47.454;18.966;2023-04-03T15:17:51;2.70;;;1.80;;
77571;SDS011;67214;47.454;18.966;2023-04-03T15:20:21;4.12;;;2.45;;
77571;SDS011;67214;47.454;18.966;2023-04-03T15:22:50;3.95;;;1.70;;
77571;SDS011;67214;47.454;18.966;2023-04-03T15:25:18;3.85;;;2.25;;
77571;SDS011;67214;47.454;18.966;2023-04-03T15:27:45;3.12;;;2.05;;
77571;SDS011;67214;47.454;18.966;2023-04-03T15:30:16;6.53;;;2.47;;
77571;SDS011;67214;47.454;18.966;2023-04-03T15:32:45;5.05;;;2.50;;
77571;SDS011;67214;47.454;18.966;2023-04-03T15:35:14;5.60;;;2.08;;
77571;SDS011;67214;47.454;18.966;2023-04-03T15:37:41;8.18;;;3.45;;
77571;SDS011;67214;47.454;18.966;2023-04-03T15:40:09;6.62;;;2.90;;
77571;SDS011;67214;47.454;18.966;2023-04-03T15:42:37;4.62;;;2.52;;
77571;SDS011;67214;47.454;18.966;2023-04-03T15:45:05;5.67;;;3.52;;
77571;SDS011;67214;47.454;18.966;2023-04-03T15:47:34;4.08;;;2.40;;
77571;SDS011;67214;47.454;18.966;2023-04-03T15:50:01;3.72;;;2.50;;
77571;SDS011;67214;47.454;18.966;2023-04-03T15:52:31;3.47;;;2.37;;
77571;SDS011;67214;47.454;18.966;2023-04-03T15:54:58;4.08;;;1.80;;
77571;SDS011;67214;47.454;18.966;2023-04-03T15:57:25;4.17;;;2.20;;
77571;SDS011;67214;47.454;18.966;2023-04-03T15:59:53;4.37;;;2.25;;
77571;SDS011;67214;47.454;18.966;2023-04-03T16:02:22;5.17;;;2.10;;
77571;SDS011;67214;47.454;18.966;2023-04-03T16:04:51;4.45;;;1.62;;
77571;SDS011;67214;47.454;18.966;2023-04-03T16:07:20;4.90;;;2.60;;
77571;SDS011;67214;47.454;18.966;2023-04-03T16:09:47;4.03;;;1.67;;
77571;SDS011;67214;47.454;18.966;2023-04-03T16:12:15;3.17;;;1.95;;
77571;SDS011;67214;47.454;18.966;2023-04-03T16:14:42;4.60;;;2.45;;
77571;SDS011;67214;47.454;18.966;2023-04-03T16:17:10;5.12;;;2.47;;
77571;SDS011;67214;47.454;18.966;2023-04-03T16:19:38;4.92;;;2.30;;
77571;SDS011;67214;47.454;18.966;2023-04-03T16:22:05;6.12;;;2.55;;